Time;durP1;ratioP1;P1;durP2;ratioP2;P2;SDS_P1;SDS_P2;PMS_P1;PMS_P2;Temp;Humidity;BMP_temperature;BMP_pressure;BME280_temperature;BME280_humidity;BME280_pressure;Samples;Min_cycle;Max_cycle;Signal;HPM_P1;HPM_P2
2023/04/12 00:01:00;;;;;;;;;;;16.30;46.40;;;;;;5050788;28;19928;-67
2023/04/12 00:03:26;;;;;;;;;;;16.30;46.40;;;;;;5051879;28;20264;-67
2023/04/12 00:05:53;;;;;;;;;;;16.20;46.40;;;;;;5051933;28;19943;-66
2023/04/12 00:08:23;;;;;;;;;;;16.20;46.40;;;;;;5052057;28;19956;-66
2023/04/12 00:10:49;;;;;;;;;;;16.20;46.40;;;;;;5050915;28;19927;-66
2023/04/12 00:13:14;;;;;;;;;;;16.20;46.40;;;;;;5050634;28;19925;-66
2023/04/12 00:15:40;;;;;;;;;;;16.20;46.50;;;;;;5051840;28;19928;-67
2023/04/12 00:18:05;;;;;;;;;;;16.20;46.50;;;;;;5050485;28;19964;-66
2023/04/12 00:20:31;;;;;;;;;;;16.20;46.50;;;;;;5050804;28;19929;-66
2023/04/12 00:22:56;;;;;;;;;;;16.20;46.50;;;;;;5050741;28;19928;-67
2023/04/12 00:25:22;;;;;;;;;;;16.20;46.50;;;;;;5050430;28;19978;-67
2023/04/12 00:27:47;;;;;;;;;;;16.20;46.50;;;;;;5050809;28;19943;-66
2023/04/12 00:30:13;;;;;;;;;;;16.20;46.60;;;;;;5050449;28;19996;-66
2023/04/12 00:32:38;;;;;;;;;;;16.20;46.60;;;;;;5050500;28;19921;-67
2023/04/12 00:35:04;;;;;;;;;;;16.20;46.60;;;;;;5050544;28;20012;-67
2023/04/12 00:37:30;;;;;;;;;;;16.20;46.60;;;;;;5050123;28;19931;-66
2023/04/12 00:39:55;;;;;;;;;;;16.20;46.70;;;;;;5050590;28;19921;-66
2023/04/12 00:42:21;;;;;;;;;;;16.20;47.50;;;;;;5051634;28;20358;-66
2023/04/12 00:44:46;;;;;;;;;;;16.20;46.70;;;;;;5051681;28;19920;-66
2023/04/12 00:47:12;;;;;;;;;;;16.20;46.70;;;;;;5055241;28;20011;-67
2023/04/12 00:49:37;;;;;;;;;;;16.40;46.50;;;;;;5054092;28;19932;-67
2023/04/12 00:52:04;;;;;;;;;;;16.80;46.00;;;;;;5053944;28;19921;-66
2023/04/12 00:54:30;;;;;;;;;;;17.30;45.10;;;;;;5054148;28;19921;-66
2023/04/12 00:56:56;;;;;;;;;;;17.90;44.10;;;;;;5053696;28;20019;-67
2023/04/12 00:59:22;;;;;;;;;;;18.70;42.80;;;;;;5053997;28;19925;-66
2023/04/12 01:01:48;;;;;;;;;;;19.50;41.30;;;;;;5054949;28;20296;-66
2023/04/12 01:04:14;;;;;;;;;;;20.40;40.50;;;;;;5054940;28;19921;-66
2023/04/12 01:06:48;;;;;;;;;;;21.20;38.30;;;;;;5053822;28;20043;-66
2023/04/12 01:12:01;;;;;;;;;;;22.40;36.10;;;;;;5127843;27;1854690;-66
2023/04/12 01:17:12;;;;;;;;;;;23.20;34.80;;;;;;5110235;27;19912;-66
2023/04/12 01:19:58;;;;;;;;;;;23.40;34.30;;;;;;5109423;28;20260;-66
2023/04/12 01:27:51;;;;;;;;;;;23.20;34.40;;;;;;5110394;27;19916;-66
2023/04/12 01:30:18;;;;;;;;;;;22.90;34.60;;;;;;5108941;28;20007;-66
2023/04/12 01:32:46;;;;;;;;;;;22.70;35.00;;;;;;5108856;28;20282;-66
2023/04/12 01:35:12;;;;;;;;;;;22.40;35.40;;;;;;5110146;28;20289;-66
2023/04/12 01:37:38;;;;;;;;;;;22.10;35.80;;;;;;5110096;28;20350;-66
2023/04/12 01:40:04;;;;;;;;;;;21.80;36.30;;;;;;5108696;28;19974;-66
2023/04/12 01:42:30;;;;;;;;;;;21.50;36.80;;;;;;5109008;28;20329;-66
2023/04/12 01:44:56;;;;;;;;;;;21.30;37.20;;;;;;5108718;28;19973;-66
2023/04/12 01:47:22;;;;;;;;;;;21.00;37.60;;;;;;5108586;28;19969;-66
2023/04/12 01:49:54;;;;;;;;;;;20.80;38.10;;;;;;5109147;28;20378;-66
2023/04/12 01:52:21;;;;;;;;;;;20.50;38.40;;;;;;5108810;28;19923;-66
2023/04/12 01:54:48;;;;;;;;;;;20.30;38.90;;;;;;5109746;28;19927;-66
2023/04/12 01:57:14;;;;;;;;;;;20.10;39.30;;;;;;5108445;28;19928;-66
2023/04/12 01:59:40;;;;;;;;;;;19.90;39.60;;;;;;5108708;28;19927;-66
2023/04/12 02:02:07;;;;;;;;;;;19.70;39.90;;;;;;5108316;28;19927;-66
2023/04/12 02:04:33;;;;;;;;;;;19.60;40.30;;;;;;5109596;28;19926;-66
2023/04/12 02:06:58;;;;;;;;;;;19.50;40.50;;;;;;5108344;28;19924;-66
2023/04/12 02:09:24;;;;;;;;;;;19.50;40.70;;;;;;5108442;28;19946;-66
2023/04/12 02:11:49;;;;;;;;;;;19.60;40.70;;;;;;5109444;28;20375;-66
2023/04/12 02:14:16;;;;;;;;;;;19.70;40.40;;;;;;5108107;28;19920;-66
2023/04/12 02:16:43;;;;;;;;;;;19.90;40.20;;;;;;5108110;28;19957;-66
2023/04/12 02:19:09;;;;;;;;;;;20.10;39.90;;;;;;5108305;28;20382;-67
2023/04/12 02:21:38;;;;;;;;;;;20.20;39.50;;;;;;5108041;28;19924;-66
2023/04/12 02:24:04;;;;;;;;;;;20.30;39.30;;;;;;5108087;28;19920;-67
2023/04/12 02:26:29;;;;;;;;;;;20.40;39.00;;;;;;5107577;28;19966;-66
2023/04/12 02:28:55;;;;;;;;;;;20.60;38.80;;;;;;5108050;28;19920;-66
2023/04/12 02:31:21;;;;;;;;;;;20.60;38.70;;;;;;5108163;28;20413;-66
2023/04/12 02:33:47;;;;;;;;;;;20.70;38.50;;;;;;5109105;28;20332;-66
2023/04/12 02:36:13;;;;;;;;;;;20.70;38.50;;;;;;5107972;28;19920;-66
2023/04/12 02:38:38;;;;;;;;;;;20.70;38.40;;;;;;5096836;28;19920;-66
2023/04/12 02:41:04;;;;;;;;;;;20.80;38.30;;;;;;5093976;28;19924;-66
2023/04/12 02:43:30;;;;;;;;;;;20.90;38.40;;;;;;5094246;28;20329;-66
2023/04/12 02:45:56;;;;;;;;;;;20.80;38.30;;;;;;5094075;28;19928;-66
2023/04/12 02:48:21;;;;;;;;;;;20.70;38.30;;;;;;5095116;28;19920;-67
2023/04/12 02:50:47;;;;;;;;;;;20.70;38.40;;;;;;5094094;28;19964;-66
2023/04/12 02:53:14;;;;;;;;;;;20.70;38.50;;;;;;5093810;28;19920;-66
2023/04/12 02:55:39;;;;;;;;;;;20.70;38.50;;;;;;5093943;28;19931;-66
2023/04/12 02:58:05;;;;;;;;;;;20.60;38.60;;;;;;5095214;28;20011;-66
2023/04/12 03:00:31;;;;;;;;;;;20.60;38.70;;;;;;5093570;28;19924;-66
2023/04/12 03:02:57;;;;;;;;;;;20.50;38.80;;;;;;5094880;28;19921;-67
2023/04/12 03:05:23;;;;;;;;;;;20.40;38.90;;;;;;5094803;28;19959;-66
2023/04/12 03:07:48;;;;;;;;;;;20.40;38.90;;;;;;5093855;28;19966;-66
2023/04/12 03:10:14;;;;;;;;;;;20.30;39.10;;;;;;5127540;27;20015;-66
2023/04/12 03:12:40;;;;;;;;;;;20.30;39.10;;;;;;5093709;28;19924;-66
2023/04/12 03:15:06;;;;;;;;;;;20.30;39.20;;;;;;5093664;28;19920;-67
2023/04/12 03:17:31;;;;;;;;;;;20.20;39.30;;;;;;5093366;28;20643;-66
2023/04/12 03:20:02;;;;;;;;;;;20.20;39.30;;;;;;5093280;28;19927;-67
2023/04/12 03:22:27;;;;;;;;;;;20.20;39.40;;;;;;5093557;28;19920;-66
2023/04/12 03:24:53;;;;;;;;;;;20.10;39.50;;;;;;5094430;28;20264;-66
2023/04/12 03:27:18;;;;;;;;;;;20.10;39.50;;;;;;5076333;28;19931;-66
2023/04/12 03:29:43;;;;;;;;;;;20.10;39.60;;;;;;5072846;28;20295;-66
2023/04/12 03:32:09;;;;;;;;;;;20.10;39.60;;;;;;5074046;28;19920;-66
2023/04/12 03:34:35;;;;;;;;;;;20.10;39.50;;;;;;5074169;28;20365;-66
2023/04/12 03:37:00;;;;;;;;;;;20.10;39.50;;;;;;5074004;28;19924;-66
2023/04/12 03:39:26;;;;;;;;;;;20.20;39.50;;;;;;5073955;28;20346;-67
2023/04/12 03:41:52;;;;;;;;;;;20.20;39.40;;;;;;5072797;28;20429;-66
2023/04/12 03:44:17;;;;;;;;;;;20.20;39.30;;;;;;5072675;28;19931;-66
2023/04/12 03:46:43;;;;;;;;;;;20.30;39.20;;;;;;5072635;28;20118;-66
2023/04/12 03:49:09;;;;;;;;;;;20.30;39.10;;;;;;5071664;28;20265;-66
2023/04/12 03:51:34;;;;;;;;;;;20.30;39.10;;;;;;5072309;28;19928;-66
2023/04/12 03:54:01;;;;;;;;;;;20.40;39.10;;;;;;5073701;28;19927;-66
2023/04/12 03:56:27;;;;;;;;;;;20.40;39.00;;;;;;5073564;28;19943;-66
2023/04/12 03:58:53;;;;;;;;;;;20.40;39.10;;;;;;5072540;28;20384;-70
2023/04/12 04:01:18;;;;;;;;;;;20.30;39.00;;;;;;5073730;28;19924;-66
2023/04/12 04:03:44;;;;;;;;;;;20.40;39.10;;;;;;5073644;28;19921;-66
2023/04/12 04:06:10;;;;;;;;;;;20.40;39.10;;;;;;5073304;28;20327;-66
2023/04/12 04:08:36;;;;;;;;;;;20.40;38.90;;;;;;5072129;28;19964;-67
2023/04/12 04:11:01;;;;;;;;;;;20.40;38.90;;;;;;5073390;28;20216;-66
2023/04/12 04:13:27;;;;;;;;;;;20.50;38.90;;;;;;5072244;28;20011;-66
2023/04/12 04:16:09;;;;;;;;;;;20.50;38.80;;;;;;5072294;28;19921;-66
2023/04/12 04:18:35;;;;;;;;;;;20.60;38.80;;;;;;5072171;28;20383;-66
2023/04/12 04:21:00;;;;;;;;;;;20.60;38.70;;;;;;5071910;28;19979;-66
2023/04/12 04:23:29;;;;;;;;;;;20.60;38.60;;;;;;5071992;28;19920;-66
2023/04/12 04:25:55;;;;;;;;;;;20.60;38.60;;;;;;5076985;28;19928;-71
2023/04/12 04:28:21;;;;;;;;;;;20.60;38.60;;;;;;5095405;28;20373;-71
2023/04/12 04:30:46;;;;;;;;;;;20.60;38.50;;;;;;5113631;28;19963;-70
2023/04/12 04:33:12;;;;;;;;;;;20.60;39.40;;;;;;5113646;28;19920;-66
2023/04/12 04:35:39;;;;;;;;;;;20.60;38.70;;;;;;5113447;28;19989;-66
2023/04/12 04:38:05;;;;;;;;;;;20.50;38.60;;;;;;5095159;28;19972;-66
2023/04/12 04:40:31;;;;;;;;;;;20.60;38.70;;;;;;5094991;28;19923;-66
2023/04/12 04:42:56;;;;;;;;;;;20.60;38.70;;;;;;5095274;28;19920;-66
2023/04/12 04:45:25;;;;;;;;;;;20.60;38.70;;;;;;5095155;28;20432;-66
2023/04/12 04:47:52;;;;;;;;;;;20.60;38.80;;;;;;5113225;28;19927;-66
2023/04/12 04:50:18;;;;;;;;;;;20.50;38.80;;;;;;5095340;28;19920;-66
2023/04/12 04:52:43;;;;;;;;;;;20.50;38.90;;;;;;5129021;27;20098;-66
2023/04/12 04:55:09;;;;;;;;;;;20.50;38.90;;;;;;5095250;28;20049;-66
2023/04/12 04:57:35;;;;;;;;;;;20.50;39.00;;;;;;5113081;28;19924;-66
2023/04/12 05:00:01;;;;;;;;;;;20.40;39.00;;;;;;5095152;28;20384;-65
2023/04/12 05:02:27;;;;;;;;;;;20.40;39.00;;;;;;5094650;28;19935;-65
2023/04/12 05:04:55;;;;;;;;;;;20.40;39.10;;;;;;5129144;27;19973;-69
2023/04/12 05:07:20;;;;;;;;;;;20.40;39.20;;;;;;5094706;28;20072;-66
2023/04/12 05:09:46;;;;;;;;;;;20.40;39.20;;;;;;5112933;28;20013;-65
2023/04/12 05:12:11;;;;;;;;;;;20.30;39.20;;;;;;5112870;28;19920;-65
2023/04/12 05:14:38;;;;;;;;;;;20.30;39.20;;;;;;5113062;28;19920;-65
2023/04/12 05:17:04;;;;;;;;;;;20.30;39.30;;;;;;5112822;28;19920;-65
2023/04/12 05:19:30;;;;;;;;;;;20.30;39.40;;;;;;5112827;28;20389;-65
2023/04/12 05:21:56;;;;;;;;;;;20.30;39.30;;;;;;5094914;28;19924;-66
2023/04/12 05:24:22;;;;;;;;;;;20.30;39.40;;;;;;5094473;28;20027;-66
2023/04/12 05:26:47;;;;;;;;;;;20.30;39.40;;;;;;5112450;28;20014;-65
2023/04/12 05:29:13;;;;;;;;;;;20.30;39.40;;;;;;5093612;28;19927;-66
2023/04/12 05:31:38;;;;;;;;;;;20.30;39.40;;;;;;5094143;28;19924;-67
2023/04/12 05:34:04;;;;;;;;;;;20.30;39.50;;;;;;5110570;28;20465;-66
2023/04/12 05:36:30;;;;;;;;;;;20.20;39.70;;;;;;5093797;28;19969;-65
2023/04/12 05:38:56;;;;;;;;;;;20.10;40.30;;;;;;5112696;28;19988;-64
2023/04/12 05:41:21;;;;;;;;;;;20.10;40.50;;;;;;5111809;28;20421;-65
2023/04/12 05:43:47;;;;;;;;;;;20.10;40.70;;;;;;5112028;28;19920;-65
2023/04/12 05:46:13;;;;;;;;;;;20.10;40.90;;;;;;5111934;28;20405;-64
2023/04/12 05:48:38;;;;;;;;;;;20.20;41.00;;;;;;5092423;28;19919;-64
2023/04/12 05:51:04;;;;;;;;;;;20.20;40.90;;;;;;5088165;28;19920;-64
2023/04/12 05:53:31;;;;;;;;;;;20.20;40.90;;;;;;5108756;28;19920;-65
2023/04/12 05:55:57;;;;;;;;;;;20.30;41.00;;;;;;5094826;28;20004;-64
2023/04/12 05:58:23;;;;;;;;;;;20.30;41.10;;;;;;5103724;28;20283;-64
2023/04/12 06:00:48;;;;;;;;;;;20.20;41.10;;;;;;5089775;28;19920;-64
2023/04/12 06:03:14;;;;;;;;;;;20.20;41.30;;;;;;5107510;28;19924;-65
2023/04/12 06:05:39;;;;;;;;;;;20.20;41.50;;;;;;5108506;28;19969;-64
2023/04/12 06:08:05;;;;;;;;;;;20.10;41.60;;;;;;5086743;28;19928;-64
2023/04/12 06:10:31;;;;;;;;;;;20.10;41.70;;;;;;5087356;28;19923;-64
2023/04/12 06:12:56;;;;;;;;;;;20.00;42.00;;;;;;5089093;28;19919;-63
2023/04/12 06:15:22;;;;;;;;;;;19.90;42.20;;;;;;5109529;28;20302;-64
2023/04/12 06:17:49;;;;;;;;;;;19.80;42.30;;;;;;5075024;28;20230;-65
2023/04/12 06:20:15;;;;;;;;;;;19.70;42.50;;;;;;5057754;28;19970;-64
2023/04/12 06:22:40;;;;;;;;;;;19.60;42.80;;;;;;5063209;28;20377;-62
2023/04/12 06:25:06;;;;;;;;;;;19.60;43.00;;;;;;5087518;28;19923;-63
2023/04/12 06:27:32;;;;;;;;;;;19.50;43.40;;;;;;5066211;28;20372;-63
2023/04/12 06:29:58;;;;;;;;;;;19.40;43.90;;;;;;5072438;28;19924;-63
2023/04/12 06:32:23;;;;;;;;;;;19.40;44.30;;;;;;5090228;28;20124;-66
2023/04/12 06:34:49;;;;;;;;;;;19.40;44.60;;;;;;5070661;28;19920;-66
2023/04/12 06:37:14;;;;;;;;;;;19.40;44.80;;;;;;5091855;28;19976;-65
2023/04/12 06:39:40;;;;;;;;;;;19.40;44.90;;;;;;5092257;28;19978;-65
2023/04/12 06:42:05;;;;;;;;;;;19.40;45.00;;;;;;5079624;28;19920;-65
2023/04/12 06:44:32;;;;;;;;;;;19.30;45.20;;;;;;5093490;27;19971;-65
2023/04/12 06:46:58;;;;;;;;;;;19.40;45.40;;;;;;5075327;28;20242;-65
2023/04/12 06:49:24;;;;;;;;;;;19.40;45.50;;;;;;5077924;28;19920;-65
2023/04/12 06:51:49;;;;;;;;;;;19.40;45.50;;;;;;5073842;28;19924;-65
2023/04/12 06:54:15;;;;;;;;;;;19.50;45.50;;;;;;5073734;28;20160;-65
2023/04/12 06:56:40;;;;;;;;;;;19.50;45.60;;;;;;5092808;28;20336;-66
2023/04/12 06:59:06;;;;;;;;;;;19.50;45.50;;;;;;5092805;28;19932;-64
2023/04/12 07:01:31;;;;;;;;;;;19.60;45.60;;;;;;5076742;28;19930;-65
2023/04/12 07:03:57;;;;;;;;;;;19.60;45.50;;;;;;5075088;28;19924;-65
2023/04/12 07:06:22;;;;;;;;;;;19.60;45.40;;;;;;5075152;28;20010;-65
2023/04/12 07:08:48;;;;;;;;;;;19.70;45.20;;;;;;5070895;28;19920;-65
2023/04/12 07:11:14;;;;;;;;;;;19.70;45.20;;;;;;5089862;28;20319;-65
2023/04/12 07:13:39;;;;;;;;;;;19.80;45.10;;;;;;5073752;28;19924;-68
2023/04/12 07:16:05;;;;;;;;;;;19.80;45.00;;;;;;5070830;28;19959;-66
2023/04/12 07:18:30;;;;;;;;;;;19.80;45.20;;;;;;5092465;28;19935;-67
2023/04/12 07:20:56;;;;;;;;;;;19.70;45.30;;;;;;5092731;28;20038;-67
2023/04/12 07:23:22;;;;;;;;;;;19.70;45.50;;;;;;5076156;28;20492;-66
2023/04/12 07:25:48;;;;;;;;;;;19.60;45.70;;;;;;5092498;28;19924;-65
2023/04/12 07:28:13;;;;;;;;;;;19.60;45.70;;;;;;5070716;28;19987;-66
2023/04/12 07:30:39;;;;;;;;;;;19.60;45.70;;;;;;5072316;28;19924;-65
2023/04/12 07:33:05;;;;;;;;;;;19.60;46.00;;;;;;5091383;28;19928;-67
2023/04/12 07:35:31;;;;;;;;;;;19.50;46.20;;;;;;5090716;28;19920;-69
2023/04/12 07:37:56;;;;;;;;;;;19.50;46.40;;;;;;5071916;28;20026;-69
2023/04/12 07:40:22;;;;;;;;;;;19.50;46.50;;;;;;5076395;28;19920;-67
2023/04/12 07:42:48;;;;;;;;;;;19.40;46.70;;;;;;5071314;28;20056;-67
2023/04/12 07:45:13;;;;;;;;;;;19.40;46.90;;;;;;5088047;28;19930;-68
2023/04/12 07:47:39;;;;;;;;;;;19.30;46.90;;;;;;5073663;28;19924;-68
2023/04/12 07:50:05;;;;;;;;;;;19.30;47.00;;;;;;5069684;28;19928;-69
2023/04/12 07:52:30;;;;;;;;;;;19.30;47.20;;;;;;5070038;28;19923;-68
2023/04/12 07:54:56;;;;;;;;;;;19.30;47.40;;;;;;5074607;28;20751;-68
2023/04/12 07:57:22;;;;;;;;;;;19.30;47.40;;;;;;5092257;28;19951;-67
2023/04/12 07:59:47;;;;;;;;;;;19.30;47.60;;;;;;5072625;28;20272;-68
2023/04/12 08:02:13;;;;;;;;;;;19.30;47.60;;;;;;5076603;28;19970;-67
2023/04/12 08:04:42;;;;;;;;;;;19.30;47.70;;;;;;5094460;28;19931;-67
2023/04/12 08:07:08;;;;;;;;;;;19.30;47.70;;;;;;5106843;27;20006;-67
2023/04/12 08:09:34;;;;;;;;;;;19.30;47.60;;;;;;5075480;28;20086;-67
2023/04/12 08:12:00;;;;;;;;;;;19.30;47.50;;;;;;5092714;28;20392;-67
2023/04/12 08:14:25;;;;;;;;;;;19.30;47.40;;;;;;5094568;28;19959;-67
2023/04/12 08:16:51;;;;;;;;;;;19.40;47.50;;;;;;5072042;28;19923;-67
2023/04/12 08:19:17;;;;;;;;;;;19.30;47.40;;;;;;5092904;28;19927;-69
2023/04/12 08:21:42;;;;;;;;;;;19.30;47.50;;;;;;5107810;27;19920;-69
2023/04/12 08:24:08;;;;;;;;;;;19.30;47.70;;;;;;5078049;28;19923;-70
2023/04/12 08:26:33;;;;;;;;;;;19.40;47.90;;;;;;5063801;28;20399;-67
2023/04/12 08:28:59;;;;;;;;;;;19.40;48.00;;;;;;5059351;28;20013;-67
2023/04/12 08:31:25;;;;;;;;;;;19.50;48.00;;;;;;5051616;28;20537;-68
2023/04/12 08:33:51;;;;;;;;;;;19.50;47.80;;;;;;5047104;28;19928;-68
2023/04/12 08:36:18;;;;;;;;;;;19.40;47.70;;;;;;5040724;28;19924;-66
2023/04/12 08:38:43;;;;;;;;;;;19.40;47.70;;;;;;5046747;28;19964;-65
2023/04/12 08:41:08;;;;;;;;;;;19.40;47.80;;;;;;5049490;28;20023;-63
2023/04/12 08:43:35;;;;;;;;;;;19.40;48.10;;;;;;5047434;28;19935;-66
2023/04/12 08:46:01;;;;;;;;;;;19.40;48.40;;;;;;5049714;28;20473;-68
2023/04/12 08:48:27;;;;;;;;;;;19.50;48.60;;;;;;5047995;28;19925;-66
2023/04/12 08:50:54;;;;;;;;;;;19.50;48.80;;;;;;5031809;28;19928;-66
2023/04/12 08:53:20;;;;;;;;;;;19.50;49.10;;;;;;5047851;28;20465;-68
2023/04/12 08:55:46;;;;;;;;;;;19.50;49.50;;;;;;5079245;28;19925;-69
2023/04/12 08:58:13;;;;;;;;;;;19.50;49.80;;;;;;5047808;28;19929;-66
2023/04/12 09:00:40;;;;;;;;;;;19.50;50.30;;;;;;5046588;28;19932;-65
2023/04/12 09:03:05;;;;;;;;;;;19.50;50.60;;;;;;5044721;28;20018;-68
2023/04/12 09:05:31;;;;;;;;;;;19.60;51.00;;;;;;5052711;28;19946;-68
2023/04/12 09:07:57;;;;;;;;;;;19.60;51.10;;;;;;5047598;28;20087;-70
2023/04/12 09:10:37;;;;;;;;;;;19.60;51.10;;;;;;5082086;28;20488;-69
2023/04/12 09:13:03;;;;;;;;;;;19.50;51.10;;;;;;5051596;28;19924;-72
2023/04/12 09:15:29;;;;;;;;;;;19.40;51.10;;;;;;5085519;28;20268;-72
2023/04/12 09:18:03;;;;;;;;;;;19.30;51.10;;;;;;5049736;28;19946;-69
2023/04/12 09:20:29;;;;;;;;;;;19.30;51.20;;;;;;5057921;28;19921;-69
2023/04/12 09:22:54;;;;;;;;;;;19.20;51.10;;;;;;5050081;28;19950;-70
2023/04/12 09:25:36;;;;;;;;;;;19.10;51.10;;;;;;5051960;28;19921;-71
2023/04/12 09:28:03;;;;;;;;;;;19.10;51.20;;;;;;5070469;28;19932;-69
2023/04/12 09:30:28;;;;;;;;;;;19.10;51.20;;;;;;5070441;28;20023;-69
2023/04/12 09:32:54;;;;;;;;;;;19.00;51.30;;;;;;5075559;28;20500;-67
2023/04/12 09:35:35;;;;;;;;;;;19.00;51.30;;;;;;5063948;28;19953;-67
2023/04/12 09:38:08;;;;;;;;;;;19.00;51.20;;;;;;5101901;28;20065;-67
2023/04/12 09:40:35;;;;;;;;;;;19.00;51.10;;;;;;5099254;28;20015;-68
2023/04/12 09:43:01;;;;;;;;;;;19.10;50.90;;;;;;5067478;28;19924;-67
2023/04/12 09:45:27;;;;;;;;;;;19.20;50.70;;;;;;5075647;28;20403;-67
2023/04/12 09:47:53;;;;;;;;;;;19.20;50.60;;;;;;5070341;28;19920;-71
2023/04/12 09:50:19;;;;;;;;;;;19.40;50.60;;;;;;5073513;28;19967;-70
2023/04/12 09:52:45;;;;;;;;;;;19.50;51.20;;;;;;5072427;28;20488;-69
2023/04/12 09:55:11;;;;;;;;;;;19.60;50.20;;;;;;5073321;28;20208;-70
2023/04/12 09:57:39;;;;;;;;;;;19.60;50.00;;;;;;5073401;28;19924;-68
2023/04/12 10:00:15;;;;;;;;;;;19.70;49.80;;;;;;5096383;27;19924;-70
2023/04/12 10:02:42;;;;;;;;;;;19.70;49.70;;;;;;5071054;28;19928;-69
2023/04/12 10:05:09;;;;;;;;;;;19.70;49.70;;;;;;5065964;28;20798;-69
2023/04/12 10:07:36;;;;;;;;;;;19.70;49.60;;;;;;5063224;28;20017;-70
2023/04/12 10:10:03;;;;;;;;;;;19.70;49.60;;;;;;5101186;27;19928;-67
2023/04/12 10:12:28;;;;;;;;;;;19.70;49.50;;;;;;5069043;28;19931;-70
2023/04/12 10:14:54;;;;;;;;;;;19.70;49.80;;;;;;5070951;28;20291;-73
2023/04/12 10:17:21;;;;;;;;;;;19.60;50.20;;;;;;5072505;28;19924;-73
2023/04/12 10:19:47;;;;;;;;;;;19.70;50.50;;;;;;5073797;28;19931;-70
2023/04/12 10:22:12;;;;;;;;;;;19.60;50.50;;;;;;5080166;28;19920;-69
2023/04/12 10:24:38;;;;;;;;;;;19.50;50.50;;;;;;5098953;27;19958;-69
2023/04/12 10:27:04;;;;;;;;;;;19.40;50.70;;;;;;5059189;28;20542;-69
2023/04/12 10:29:31;;;;;;;;;;;19.30;50.80;;;;;;5046323;28;19921;-69
2023/04/12 10:32:16;;;;;;;;;;;19.30;51.00;;;;;;5054702;28;20034;-68
2023/04/12 10:34:42;;;;;;;;;;;19.20;51.10;;;;;;5053751;28;19932;-70
2023/04/12 10:37:08;;;;;;;;;;;19.20;51.20;;;;;;5046419;28;20377;-68
2023/04/12 10:39:36;;;;;;;;;;;19.10;51.30;;;;;;5053355;28;20728;-69
2023/04/12 10:42:22;;;;;;;;;;;19.10;51.30;;;;;;5060597;28;19935;-70
2023/04/12 10:44:48;;;;;;;;;;;19.10;51.40;;;;;;5063172;28;19927;-68
2023/04/12 10:47:15;;;;;;;;;;;19.00;51.50;;;;;;5066145;28;20142;-69
2023/04/12 10:50:00;;;;;;;;;;;19.00;51.50;;;;;;5068915;28;20368;-69
2023/04/12 10:52:25;;;;;;;;;;;19.00;51.50;;;;;;5093910;28;19920;-70
2023/04/12 10:54:51;;;;;;;;;;;19.00;51.70;;;;;;5067301;28;20437;-70
2023/04/12 10:57:36;;;;;;;;;;;19.00;51.70;;;;;;5068122;28;19921;-69
2023/04/12 11:00:02;;;;;;;;;;;19.10;51.80;;;;;;5066390;28;20015;-69
2023/04/12 11:02:28;;;;;;;;;;;19.10;51.70;;;;;;5067467;28;20070;-69
2023/04/12 11:05:09;;;;;;;;;;;19.10;51.60;;;;;;5069159;28;20440;-69
2023/04/12 11:07:39;;;;;;;;;;;19.10;51.50;;;;;;5068847;28;19960;-69
2023/04/12 11:10:11;;;;;;;;;;;19.20;51.40;;;;;;5055761;28;19924;-69
2023/04/12 11:12:37;;;;;;;;;;;19.20;51.20;;;;;;5068798;28;19921;-69
2023/04/12 11:15:04;;;;;;;;;;;19.30;51.10;;;;;;5070936;28;19927;-68
2023/04/12 11:17:30;;;;;;;;;;;19.30;50.90;;;;;;5068937;28;19955;-67
2023/04/12 11:19:57;;;;;;;;;;;19.30;50.80;;;;;;5064935;28;20013;-67
2023/04/12 11:22:24;;;;;;;;;;;19.30;50.70;;;;;;5066307;28;19925;-67
2023/04/12 11:24:50;;;;;;;;;;;19.40;50.60;;;;;;5068529;28;19920;-67
2023/04/12 11:27:17;;;;;;;;;;;19.40;50.30;;;;;;5065934;28;20380;-67
2023/04/12 11:29:43;;;;;;;;;;;19.50;50.20;;;;;;5068234;28;20368;-67
2023/04/12 11:32:12;;;;;;;;;;;19.50;50.00;;;;;;5067067;28;19928;-67
2023/04/12 11:34:37;;;;;;;;;;;19.60;49.90;;;;;;5065580;28;19920;-67
2023/04/12 11:37:06;;;;;;;;;;;19.60;49.70;;;;;;5068052;28;20285;-67
2023/04/12 11:39:32;;;;;;;;;;;19.50;49.50;;;;;;5068108;28;20507;-70
2023/04/12 11:41:58;;;;;;;;;;;19.60;49.60;;;;;;5068092;28;20031;-70
2023/04/12 11:44:24;;;;;;;;;;;19.50;49.40;;;;;;5069578;28;19928;-68
2023/04/12 11:46:50;;;;;;;;;;;19.50;49.50;;;;;;5069336;28;19924;-70
2023/04/12 11:49:16;;;;;;;;;;;19.50;50.30;;;;;;5069193;28;19920;-69
2023/04/12 11:51:41;;;;;;;;;;;19.40;49.70;;;;;;5068697;28;20367;-69
2023/04/12 11:54:07;;;;;;;;;;;19.40;49.70;;;;;;5069714;28;19956;-74
2023/04/12 11:56:32;;;;;;;;;;;19.30;49.70;;;;;;5069167;28;20383;-70
2023/04/12 11:58:58;;;;;;;;;;;19.30;49.90;;;;;;5068624;28;20307;-68
2023/04/12 12:01:24;;;;;;;;;;;19.30;50.00;;;;;;5069670;28;19920;-67
2023/04/12 12:03:50;;;;;;;;;;;19.20;50.00;;;;;;5066960;28;19932;-68
2023/04/12 12:06:16;;;;;;;;;;;19.20;50.20;;;;;;5068940;28;20364;-69
2023/04/12 12:08:42;;;;;;;;;;;19.10;50.20;;;;;;5068345;28;19920;-73
2023/04/12 12:11:07;;;;;;;;;;;19.10;50.30;;;;;;5068157;28;19920;-68
2023/04/12 12:16:29;;;;;;;;;;;19.00;50.50;;;;;;5085534;28;20287;-68
2023/04/12 12:18:55;;;;;;;;;;;19.00;50.60;;;;;;5084551;28;19921;-68
2023/04/12 12:21:20;;;;;;;;;;;19.00;50.40;;;;;;5085787;28;20000;-67
2023/04/12 12:23:46;;;;;;;;;;;19.00;50.50;;;;;;5085352;28;20208;-67
2023/04/12 12:26:20;;;;;;;;;;;19.00;50.50;;;;;;5086439;28;19965;-69
2023/04/12 12:28:50;;;;;;;;;;;19.00;50.40;;;;;;5083552;28;19920;-68
2023/04/12 12:31:19;;;;;;;;;;;19.10;50.50;;;;;;5086733;28;20371;-67
2023/04/12 12:33:45;;;;;;;;;;;19.00;50.30;;;;;;5086380;28;19920;-67
2023/04/12 12:36:12;;;;;;;;;;;19.00;50.40;;;;;;5086273;28;20353;-65
2023/04/12 12:38:39;;;;;;;;;;;19.00;50.40;;;;;;5084397;28;19920;-66
2023/04/12 12:41:26;;;;;;;;;;;19.00;50.50;;;;;;5082893;28;20007;-67
2023/04/12 12:43:51;;;;;;;;;;;18.90;50.50;;;;;;5082967;28;19952;-67
2023/04/12 12:46:17;;;;;;;;;;;18.80;50.60;;;;;;5085804;28;19971;-67
2023/04/12 12:48:44;;;;;;;;;;;18.80;50.70;;;;;;5085528;28;20534;-68
2023/04/12 12:51:10;;;;;;;;;;;18.70;50.70;;;;;;5085325;28;20372;-67
2023/04/12 12:53:36;;;;;;;;;;;18.70;50.80;;;;;;5085968;28;19921;-68
2023/04/12 12:56:02;;;;;;;;;;;18.70;50.90;;;;;;5084392;28;20593;-66
2023/04/12 12:58:28;;;;;;;;;;;18.60;50.90;;;;;;5086901;28;20008;-67
2023/04/12 13:00:53;;;;;;;;;;;18.60;51.00;;;;;;5085369;28;19935;-66
2023/04/12 13:03:19;;;;;;;;;;;18.60;51.10;;;;;;5086677;28;20388;-67
2023/04/12 13:05:45;;;;;;;;;;;18.50;51.10;;;;;;5084829;28;20321;-67
2023/04/12 13:08:10;;;;;;;;;;;18.50;51.20;;;;;;5081747;28;19928;-67
2023/04/12 13:10:36;;;;;;;;;;;18.40;51.10;;;;;;5085529;28;19932;-67
2023/04/12 13:13:02;;;;;;;;;;;18.40;51.20;;;;;;5084973;28;20292;-67
2023/04/12 13:15:27;;;;;;;;;;;18.40;51.10;;;;;;5099133;28;19938;-67
2023/04/12 13:17:53;;;;;;;;;;;18.30;51.10;;;;;;5084939;28;19927;-67
2023/04/12 13:20:19;;;;;;;;;;;18.30;51.10;;;;;;5085531;28;19920;-67
2023/04/12 13:22:44;;;;;;;;;;;18.30;51.10;;;;;;5088523;28;19920;-67
2023/04/12 13:25:10;;;;;;;;;;;18.20;51.10;;;;;;5106437;28;19924;-67
2023/04/12 13:27:36;;;;;;;;;;;18.20;51.10;;;;;;5073519;28;20011;-67
2023/04/12 13:30:02;;;;;;;;;;;18.20;51.20;;;;;;5073794;28;20413;-67
2023/04/12 13:32:28;;;;;;;;;;;18.20;51.20;;;;;;5073367;28;19928;-67
2023/04/12 13:34:53;;;;;;;;;;;18.20;51.20;;;;;;5074851;28;20011;-67
2023/04/12 13:37:19;;;;;;;;;;;18.20;51.20;;;;;;5092805;28;19920;-67
2023/04/12 13:39:44;;;;;;;;;;;18.10;51.20;;;;;;5075584;28;19920;-70
2023/04/12 13:42:10;;;;;;;;;;;18.10;51.10;;;;;;5076071;28;20189;-67
2023/04/12 13:44:35;;;;;;;;;;;18.10;51.10;;;;;;5093384;28;20004;-67
2023/04/12 13:47:01;;;;;;;;;;;18.10;51.10;;;;;;5074772;28;19958;-79
2023/04/12 13:49:27;;;;;;;;;;;18.10;51.10;;;;;;5074858;28;19920;-67
2023/04/12 13:51:52;;;;;;;;;;;18.00;51.10;;;;;;5074678;28;19978;-69
2023/04/12 13:54:18;;;;;;;;;;;18.10;51.20;;;;;;5074322;28;19997;-74
2023/04/12 13:56:43;;;;;;;;;;;18.10;51.20;;;;;;5093219;28;19920;-68
2023/04/12 13:59:10;;;;;;;;;;;18.10;51.00;;;;;;5092329;28;19920;-67
2023/04/12 14:01:35;;;;;;;;;;;18.00;50.90;;;;;;5073939;28;19924;-68
2023/04/12 14:04:02;;;;;;;;;;;18.00;50.80;;;;;;5074471;28;19949;-68
2023/04/12 14:06:28;;;;;;;;;;;18.00;50.80;;;;;;5074514;28;19920;-67
2023/04/12 14:08:54;;;;;;;;;;;18.00;50.80;;;;;;5092508;28;19928;-68
2023/04/12 14:11:21;;;;;;;;;;;17.90;50.80;;;;;;5074154;28;20307;-68
2023/04/12 14:13:47;;;;;;;;;;;17.90;50.80;;;;;;5074860;28;19970;-71
2023/04/12 14:16:12;;;;;;;;;;;17.90;50.80;;;;;;5092166;28;19928;-68
2023/04/12 14:18:38;;;;;;;;;;;17.90;50.80;;;;;;5091338;28;19926;-68
2023/04/12 14:21:04;;;;;;;;;;;17.90;50.90;;;;;;5074369;28;19920;-68
2023/04/12 14:23:29;;;;;;;;;;;17.90;50.90;;;;;;5075518;28;20299;-72
2023/04/12 14:25:55;;;;;;;;;;;17.90;50.90;;;;;;5076112;28;20316;-68